createdAt,value
2019-01-04T00:01:27.457Z,-0.37
2019-01-04T00:04:29.494Z,-0.35
2019-01-04T00:07:31.375Z,-0.40
2019-01-04T00:10:33.223Z,-0.35
2019-01-04T00:13:35.187Z,-0.36
2019-01-04T00:16:37.055Z,-0.38
2019-01-04T00:19:39.025Z,-0.33
2019-01-04T00:22:40.997Z,-0.38
2019-01-04T00:25:43.029Z,-0.34
2019-01-04T00:28:44.900Z,-0.26
2019-01-04T00:31:46.794Z,-0.23
2019-01-04T00:34:48.681Z,-0.21
2019-01-04T00:37:50.616Z,-0.26
2019-01-04T00:40:52.555Z,-0.20
2019-01-04T00:43:54.528Z,-0.15
2019-01-04T00:46:56.541Z,-0.10
2019-01-04T00:49:58.592Z,-0.08
2019-01-04T00:53:00.671Z,-0.13
2019-01-04T00:56:21.491Z,-0.21
2019-01-04T00:59:33.324Z,-0.19
2019-01-04T01:02:58.456Z,-0.29
2019-01-04T01:06:12.932Z,-0.31
2019-01-04T01:09:24.535Z,-0.35
2019-01-04T01:12:51.707Z,-0.40
2019-01-04T01:15:57.172Z,-0.40
2019-01-04T01:19:34.191Z,-0.45
2019-01-04T01:22:54.858Z,-0.39
2019-01-04T01:26:24.840Z,-0.48
2019-01-04T01:29:53.195Z,-0.47
2019-01-04T01:33:20.020Z,-0.52
2019-01-04T01:36:34.103Z,-0.53
2019-01-04T01:40:11.821Z,-0.58
2019-01-04T01:43:26.145Z,-0.52
2019-01-04T01:46:34.741Z,-0.56
2019-01-04T01:49:43.070Z,-0.49
2019-01-04T01:52:44.992Z,-0.41
2019-01-04T01:55:46.875Z,-0.41
2019-01-04T01:58:49.025Z,-0.39
2019-01-04T02:01:50.922Z,-0.33
2019-01-04T02:04:52.793Z,-0.26
2019-01-04T02:07:55.677Z,-0.18
2019-01-04T02:10:57.619Z,-0.09
2019-01-04T02:13:59.501Z,-0.13
2019-01-04T02:17:01.470Z,-0.06
2019-01-04T02:20:05.062Z,-0.06
2019-01-04T02:23:06.950Z,-0.02
2019-01-04T02:26:08.958Z,-0.01
2019-01-04T02:29:10.865Z,-0.02
2019-01-04T02:32:12.774Z,-0.03
2019-01-04T02:35:14.638Z,-0.08
2019-01-04T02:38:16.538Z,-0.08
2019-01-04T02:41:19.539Z,-0.10
2019-01-04T02:44:21.456Z,-0.08
2019-01-04T02:47:23.486Z,-0.11
2019-01-04T02:50:25.384Z,-0.18
2019-01-04T02:53:28.947Z,-0.19
2019-01-04T02:56:30.857Z,-0.16
2019-01-04T02:59:32.870Z,-0.20
2019-01-04T03:02:34.750Z,-0.17
2019-01-04T03:05:36.684Z,-0.14
2019-01-04T03:08:38.527Z,-0.09
2019-01-04T03:11:40.405Z,-0.14
2019-01-04T03:14:42.266Z,-0.13
2019-01-04T03:17:45.299Z,-0.14
2019-01-04T03:20:47.139Z,-0.11
2019-01-04T03:23:49.112Z,-0.12
2019-01-04T03:26:51.000Z,-0.13
2019-01-04T03:29:53.119Z,-0.11
2019-01-04T03:32:55.027Z,-0.08
2019-01-04T03:35:57.025Z,-0.15
2019-01-04T03:38:58.926Z,-0.14
2019-01-04T03:42:01.104Z,-0.06
2019-01-04T03:45:04.831Z,-0.01
2019-01-04T03:48:06.898Z,0.01
2019-01-04T03:51:08.993Z,-0.03
2019-01-04T03:54:11.010Z,-0.04
2019-01-04T03:57:12.921Z,-0.03
2019-01-04T04:00:14.916Z,0.03
2019-01-04T04:03:16.800Z,0.00
2019-01-04T04:06:20.509Z,-0.07
2019-01-04T04:09:22.419Z,-0.06
2019-01-04T04:12:24.355Z,-0.14
2019-01-04T04:15:26.215Z,-0.13
2019-01-04T04:18:28.128Z,-0.15
2019-01-04T04:21:30.100Z,-0.22
2019-01-04T04:24:32.036Z,-0.25
2019-01-04T04:27:33.904Z,-0.34
2019-01-04T04:30:35.918Z,-0.36
2019-01-04T04:33:37.800Z,-0.37
2019-01-04T04:36:39.747Z,-0.36
2019-01-04T04:39:41.696Z,-0.30
2019-01-04T04:42:43.568Z,-0.36
2019-01-04T04:45:45.493Z,-0.28
2019-01-04T04:48:48.628Z,-0.30
2019-01-04T04:51:50.575Z,-0.36
2019-01-04T04:54:52.799Z,-0.38
2019-01-04T04:57:54.781Z,-0.46
2019-01-04T05:00:56.748Z,-0.53
2019-01-04T05:03:58.700Z,-0.63
2019-01-04T05:07:00.702Z,-0.67
2019-01-04T05:10:02.690Z,-0.71
2019-01-04T05:13:04.672Z,-0.76
2019-01-04T05:16:06.559Z,-0.84
2019-01-04T05:19:08.543Z,-0.93
2019-01-04T05:22:10.468Z,-1.02
2019-01-04T05:25:12.388Z,-1.11
2019-01-04T05:28:14.308Z,-1.21
2019-01-04T05:31:16.391Z,-1.27
2019-01-04T05:34:19.218Z,-1.32
2019-01-04T05:37:21.536Z,-1.40
2019-01-04T05:40:23.628Z,-1.47
2019-01-04T05:43:25.550Z,-1.60
2019-01-04T05:46:27.444Z,-1.67
2019-01-04T05:49:29.537Z,-1.72
2019-01-04T05:52:31.477Z,-1.79
2019-01-04T05:55:33.461Z,-1.81
2019-01-04T05:58:35.429Z,-1.86
2019-01-04T06:01:37.453Z,-1.92
2019-01-04T06:04:39.424Z,-1.91
2019-01-04T06:07:41.346Z,-1.91
2019-01-04T06:10:43.304Z,-1.85
2019-01-04T06:13:45.264Z,-1.79
2019-01-04T06:16:47.175Z,-1.73
2019-01-04T06:19:49.180Z,-1.71
2019-01-04T06:22:51.141Z,-1.70
2019-01-04T06:25:53.093Z,-1.66
2019-01-04T06:28:55.058Z,-1.69
2019-01-04T06:31:57.127Z,-1.67
2019-01-04T06:34:59.086Z,-1.61
2019-01-04T06:38:01.011Z,-1.56
2019-01-04T06:41:04.208Z,-1.55
2019-01-04T06:44:06.157Z,-1.55
2019-01-04T06:47:13.176Z,-1.59
2019-01-04T06:50:15.142Z,-1.65
2019-01-04T06:53:17.014Z,-1.68
2019-01-04T06:56:18.970Z,-1.66
2019-01-04T06:59:20.867Z,-1.66
2019-01-04T07:02:22.929Z,-1.64
2019-01-04T07:05:24.853Z,-1.63
2019-01-04T07:08:26.862Z,-1.56
2019-01-04T07:11:28.776Z,-1.59
2019-01-04T07:14:30.747Z,-1.53
2019-01-04T07:17:32.696Z,-1.42
2019-01-04T07:20:34.616Z,-1.07
2019-01-04T07:23:36.504Z,-1.04
2019-01-04T07:26:38.445Z,-1.08
2019-01-04T07:29:40.375Z,-1.08
2019-01-04T07:32:42.312Z,-1.10
2019-01-04T07:35:44.263Z,-1.08
2019-01-04T07:38:46.140Z,-1.10
2019-01-04T07:41:48.083Z,-1.03
2019-01-04T07:44:50.003Z,-0.99
2019-01-04T07:47:52.031Z,-0.93
2019-01-04T07:50:54.092Z,-0.84
2019-01-04T07:54:00.044Z,-0.71
2019-01-04T07:57:02.015Z,-0.61
2019-01-04T08:00:09.790Z,-0.54
2019-01-04T08:03:11.907Z,-0.44
2019-01-04T08:06:13.794Z,-0.40
2019-01-04T08:09:17.555Z,-0.32
2019-01-04T08:12:19.445Z,-0.25
2019-01-04T08:15:21.397Z,-0.18
2019-01-04T08:18:23.295Z,-0.07
2019-01-04T08:21:25.209Z,0.06
2019-01-04T08:24:27.098Z,0.17
2019-01-04T08:27:29.128Z,0.33
2019-01-04T08:30:31.386Z,0.45
2019-01-04T08:33:33.502Z,0.51
2019-01-04T08:36:35.608Z,0.61
2019-01-04T08:39:37.567Z,0.75
2019-01-04T08:42:39.517Z,0.89
2019-01-04T08:45:42.649Z,0.90
2019-01-04T08:48:44.622Z,0.97
2019-01-04T08:51:47.756Z,1.15
2019-01-04T08:54:49.707Z,1.28
2019-01-04T08:57:51.745Z,1.46
2019-01-04T09:00:53.720Z,1.64
2019-01-04T09:03:55.853Z,1.82
2019-01-04T09:06:57.970Z,2.00
2019-01-04T09:10:00.006Z,2.13
2019-01-04T09:13:02.008Z,2.27
2019-01-04T09:16:03.997Z,2.32
2019-01-04T09:19:06.046Z,2.29
2019-01-04T09:22:08.048Z,2.28
2019-01-04T09:25:10.014Z,2.25
2019-01-04T09:28:17.914Z,2.21
2019-01-04T09:31:16.436Z,2.17
2019-01-04T09:34:18.606Z,2.14
2019-01-04T09:37:20.654Z,2.17
2019-01-04T09:40:22.647Z,2.22
2019-01-04T09:43:24.723Z,2.24
2019-01-04T09:46:26.762Z,2.14
2019-01-04T09:49:28.816Z,2.17
2019-01-04T09:52:30.870Z,2.25
2019-01-04T09:55:32.830Z,2.16
2019-01-04T09:58:34.849Z,2.20
2019-01-04T10:01:36.808Z,2.25
2019-01-04T10:04:38.975Z,2.28
2019-01-04T10:07:40.915Z,2.32
2019-01-04T10:10:42.921Z,2.28
2019-01-04T10:13:44.905Z,2.21
2019-01-04T10:16:46.869Z,2.22
2019-01-04T10:19:48.882Z,2.30
2019-01-04T10:22:50.852Z,2.35
2019-01-04T10:25:52.892Z,2.39
2019-01-04T10:28:54.914Z,2.39
2019-01-04T10:31:56.906Z,2.47
2019-01-04T10:34:59.046Z,2.63
2019-01-04T10:38:01.042Z,2.75
2019-01-04T10:41:03.047Z,2.80
2019-01-04T10:44:05.018Z,2.84
2019-01-04T10:47:07.052Z,2.95
2019-01-04T10:50:09.030Z,3.23
2019-01-04T10:53:11.133Z,2.88
2019-01-04T10:56:13.057Z,2.59
2019-01-04T10:59:14.996Z,2.51
2019-01-04T11:02:17.019Z,2.35
2019-01-04T11:05:19.084Z,2.23
2019-01-04T11:08:21.176Z,2.24
2019-01-04T11:11:23.159Z,2.27
2019-01-04T11:14:25.236Z,2.25
2019-01-04T11:17:27.189Z,2.12
2019-01-04T11:20:43.168Z,1.89
2019-01-04T11:23:57.952Z,1.79
2019-01-04T11:26:59.947Z,1.71
2019-01-04T11:30:17.554Z,1.55
2019-01-04T11:33:19.525Z,1.55
2019-01-04T11:36:46.491Z,1.62
2019-01-04T11:39:54.771Z,1.55
2019-01-04T11:43:15.426Z,1.44
2019-01-04T11:46:50.298Z,1.55
2019-01-04T11:50:01.866Z,1.58
2019-01-04T11:53:07.722Z,1.61
2019-01-04T11:56:09.650Z,1.64
2019-01-04T11:59:11.636Z,1.74
2019-01-04T12:02:13.569Z,1.94
2019-01-04T12:05:15.610Z,2.11
2019-01-04T12:08:17.617Z,2.24
2019-01-04T12:11:19.737Z,2.30
2019-01-04T12:14:21.782Z,2.32
2019-01-04T12:17:23.762Z,2.28
2019-01-04T12:20:25.733Z,2.27
2019-01-04T12:23:27.956Z,2.17
2019-01-04T12:26:30.058Z,2.11
2019-01-04T12:29:32.296Z,2.14
2019-01-04T12:32:34.283Z,2.19
2019-01-04T12:35:36.288Z,2.25
2019-01-04T12:38:38.406Z,2.23
2019-01-04T12:41:40.419Z,2.28
2019-01-04T12:44:42.481Z,2.25
2019-01-04T12:47:45.721Z,2.29
2019-01-04T12:50:47.685Z,2.31
2019-01-04T12:53:49.668Z,2.29
2019-01-04T12:56:51.630Z,2.28
2019-01-04T12:59:53.701Z,2.30
2019-01-04T13:02:55.699Z,2.29
2019-01-04T13:05:57.740Z,2.26
2019-01-04T13:08:59.858Z,2.28
2019-01-04T13:12:01.891Z,2.34
2019-01-04T13:15:05.507Z,2.35
2019-01-04T13:18:07.637Z,2.38
2019-01-04T13:21:09.770Z,2.43
2019-01-04T13:24:11.946Z,2.51
2019-01-04T13:27:13.929Z,2.58
2019-01-04T13:30:16.090Z,2.62
2019-01-04T13:33:18.042Z,2.73
2019-01-04T13:36:20.014Z,2.78
2019-01-04T13:39:22.207Z,2.86
2019-01-04T13:42:24.271Z,2.82
2019-01-04T13:45:26.198Z,2.88
2019-01-04T13:48:28.277Z,2.89
2019-01-04T13:51:30.251Z,2.96
2019-01-04T13:54:32.330Z,3.11
2019-01-04T13:57:34.302Z,3.15
2019-01-04T14:00:36.312Z,3.27
2019-01-04T14:03:38.342Z,3.36
2019-01-04T14:06:40.335Z,3.40
2019-01-04T14:09:44.119Z,3.44
2019-01-04T14:12:46.158Z,3.51
2019-01-04T14:15:48.414Z,3.54
2019-01-04T14:18:50.484Z,3.50
2019-01-04T14:21:52.488Z,3.51
2019-01-04T14:24:54.531Z,3.51
2019-01-04T14:27:56.449Z,3.51
2019-01-04T14:30:58.480Z,3.48
2019-01-04T14:34:03.552Z,3.53
2019-01-04T14:37:05.526Z,3.56
2019-01-04T14:40:09.853Z,3.58
2019-01-04T14:43:11.926Z,3.55
2019-01-04T14:46:13.969Z,3.49
2019-01-04T14:49:15.960Z,3.42
2019-01-04T14:52:17.973Z,3.33
2019-01-04T14:55:19.964Z,3.34
2019-01-04T14:58:21.936Z,3.28
2019-01-04T15:01:23.968Z,3.22
2019-01-04T15:04:25.964Z,3.14
2019-01-04T15:07:28.058Z,3.11
2019-01-04T15:10:30.142Z,3.09
2019-01-04T15:13:32.294Z,3.05
2019-01-04T15:16:34.212Z,3.02
2019-01-04T15:19:36.235Z,3.00
2019-01-04T15:22:38.357Z,3.01
2019-01-04T15:25:40.523Z,3.04
2019-01-04T15:28:42.559Z,3.06
2019-01-04T15:31:44.639Z,3.02
2019-01-04T15:34:46.646Z,2.97
2019-01-04T15:37:48.744Z,2.91
2019-01-04T15:40:50.830Z,2.92
2019-01-04T15:43:52.973Z,2.92
2019-01-04T15:46:55.077Z,2.92
2019-01-04T15:49:57.213Z,2.93
2019-01-04T15:52:59.354Z,2.92
2019-01-04T15:56:01.508Z,2.90
2019-01-04T15:59:03.623Z,2.89
2019-01-04T16:02:05.806Z,2.93
2019-01-04T16:05:08.719Z,2.95
2019-01-04T16:08:10.921Z,2.96
2019-01-04T16:11:12.979Z,2.99
2019-01-04T16:14:15.304Z,3.03
2019-01-04T16:17:17.310Z,3.07
2019-01-04T16:20:19.333Z,3.07
2019-01-04T16:23:21.292Z,3.07
2019-01-04T16:26:24.306Z,3.09
2019-01-04T16:29:26.402Z,3.11
2019-01-04T16:32:28.500Z,3.13
2019-01-04T16:35:30.529Z,3.13
2019-01-04T16:38:32.603Z,3.21
2019-01-04T16:41:34.657Z,3.21
2019-01-04T16:44:36.761Z,3.22
2019-01-04T16:47:39.232Z,3.22
2019-01-04T16:50:41.728Z,3.24
2019-01-04T16:53:43.695Z,3.26
2019-01-04T16:56:46.366Z,3.25
2019-01-04T16:59:48.328Z,3.27
2019-01-04T17:02:50.486Z,3.26
2019-01-04T17:05:52.520Z,3.32
2019-01-04T17:08:54.565Z,3.32
2019-01-04T17:11:56.486Z,3.38
2019-01-04T17:14:59.893Z,3.38
2019-01-04T17:18:01.846Z,3.40
2019-01-04T17:21:05.448Z,3.41
2019-01-04T17:24:07.436Z,3.41
2019-01-04T17:27:09.368Z,3.40
2019-01-04T17:30:12.629Z,3.43
2019-01-04T17:33:14.557Z,3.36
2019-01-04T17:36:16.607Z,3.47
2019-01-04T17:39:18.723Z,3.53
2019-01-04T17:42:21.117Z,3.56
2019-01-04T17:45:23.109Z,3.58
2019-01-04T17:48:26.398Z,3.60
2019-01-04T17:51:29.735Z,3.61
2019-01-04T17:54:31.747Z,3.63
2019-01-04T17:57:33.714Z,3.65
2019-01-04T18:00:35.780Z,3.61
2019-01-04T18:03:37.754Z,3.55
2019-01-04T18:06:39.707Z,3.57
2019-01-04T18:09:41.704Z,3.59
2019-01-04T18:12:43.672Z,3.59
2019-01-04T18:15:45.815Z,3.54
2019-01-04T18:18:47.765Z,3.55
2019-01-04T18:21:49.766Z,3.57
2019-01-04T18:24:51.827Z,3.59
2019-01-04T18:27:53.932Z,3.66
2019-01-04T18:30:55.999Z,3.67
2019-01-04T18:33:59.409Z,3.61
2019-01-04T18:37:01.445Z,3.59
2019-01-04T18:40:06.521Z,3.61
2019-01-04T18:43:08.612Z,3.57
2019-01-04T18:46:10.731Z,3.56
2019-01-04T18:49:12.685Z,3.56
2019-01-04T18:52:15.080Z,3.57
2019-01-04T18:55:17.085Z,3.60
2019-01-04T18:58:19.191Z,3.67
2019-01-04T19:01:22.402Z,3.69
2019-01-04T19:04:24.390Z,3.72
2019-01-04T19:07:26.826Z,3.74
2019-01-04T19:10:28.855Z,3.75
2019-01-04T19:13:31.818Z,3.80
2019-01-04T19:16:34.084Z,3.83
2019-01-04T19:19:36.101Z,3.82
2019-01-04T19:22:38.202Z,3.79
2019-01-04T19:25:40.190Z,3.76
2019-01-04T19:28:42.536Z,3.77
2019-01-04T19:31:46.287Z,3.77
2019-01-04T19:34:51.697Z,3.76
2019-01-04T19:37:53.646Z,3.76
2019-01-04T19:40:55.704Z,3.77
2019-01-04T19:43:57.780Z,3.79
2019-01-04T19:46:59.766Z,3.82
2019-01-04T19:50:14.698Z,3.82
2019-01-04T19:53:17.187Z,3.82
2019-01-04T19:56:19.531Z,3.83
2019-01-04T19:59:21.510Z,3.87
2019-01-04T20:02:23.610Z,3.86
2019-01-04T20:05:31.117Z,3.86
2019-01-04T20:09:03.169Z,3.81
2019-01-04T20:12:48.298Z,3.78
2019-01-04T20:16:16.920Z,3.69
2019-01-04T20:19:27.799Z,3.60
2019-01-04T20:22:34.743Z,3.54
2019-01-04T20:25:55.137Z,3.59
2019-01-04T20:29:11.613Z,3.68
2019-01-04T20:32:31.745Z,3.68
2019-01-04T20:35:52.259Z,3.70
2019-01-04T20:39:16.229Z,3.69
2019-01-04T20:42:22.566Z,3.67
2019-01-04T20:45:35.662Z,3.63
2019-01-04T20:48:53.229Z,3.67
2019-01-04T20:51:57.531Z,3.71
2019-01-04T20:55:15.093Z,3.73
2019-01-04T20:58:37.542Z,3.73
2019-01-04T21:01:41.890Z,3.71
2019-01-04T21:05:06.105Z,3.68
2019-01-04T21:08:22.253Z,3.71
2019-01-04T21:11:28.924Z,3.67
2019-01-04T21:14:44.629Z,3.61
2019-01-04T21:17:57.798Z,3.62
2019-01-04T21:21:16.081Z,3.63
2019-01-04T21:24:23.209Z,3.65
2019-01-04T21:27:30.083Z,3.66
2019-01-04T21:30:33.871Z,3.71
2019-01-04T21:33:46.930Z,3.72
2019-01-04T21:37:02.981Z,3.75
2019-01-04T21:40:09.900Z,3.76
2019-01-04T21:43:31.864Z,3.68
2019-01-04T21:46:44.738Z,3.69
2019-01-04T21:49:48.501Z,3.62
2019-01-04T21:52:54.859Z,3.59
2019-01-04T21:55:58.612Z,3.55
2019-01-04T21:59:14.740Z,3.57
2019-01-04T22:02:25.658Z,3.59
2019-01-04T22:05:32.334Z,3.59
2019-01-04T22:08:48.429Z,3.58
2019-01-04T22:12:04.271Z,3.64
2019-01-04T22:15:17.058Z,3.59
2019-01-04T22:18:32.871Z,3.58
2019-01-04T22:21:39.719Z,3.57
2019-01-04T22:24:52.694Z,3.64
2019-01-04T22:28:05.393Z,3.63
2019-01-04T22:31:15.285Z,3.59
2019-01-04T22:34:19.041Z,3.61
2019-01-04T22:37:25.405Z,3.69
2019-01-04T22:40:33.349Z,3.72
2019-01-04T22:43:37.435Z,3.81
2019-01-04T22:46:44.153Z,3.79
2019-01-04T22:49:50.671Z,3.78
2019-01-04T22:53:06.649Z,3.86
2019-01-04T22:56:34.052Z,3.87
2019-01-04T22:59:46.732Z,3.83
2019-01-04T23:03:08.756Z,3.81
2019-01-04T23:06:18.443Z,3.74
2019-01-04T23:09:24.967Z,3.69
2019-01-04T23:12:45.393Z,3.72
2019-01-04T23:15:49.269Z,3.75
2019-01-04T23:19:09.588Z,3.75
2019-01-04T23:22:26.239Z,3.77
2019-01-04T23:25:30.107Z,3.78
2019-01-04T23:28:33.894Z,3.75
2019-01-04T23:31:37.759Z,3.75
2019-01-04T23:34:53.715Z,3.68
2019-01-04T23:38:06.745Z,3.68
2019-01-04T23:41:19.385Z,3.65
2019-01-04T23:44:23.208Z,3.70
2019-01-04T23:47:27.170Z,3.69
2019-01-04T23:50:31.056Z,3.76
2019-01-04T23:53:52.247Z,3.82
2019-01-04T23:57:05.354Z,3.83
